Terminal Aerodrome Forecast
Issued by NWS

Home | Current Version | Previous Version | Graphics & Text | Print | Product List | Glossary On
Versions: 1 2 3 4 5 6 7 8 9 10 11 12 13 14 15 16 17 18 19 20 21 22 23
000
FTUS43 KABR 272300
TAFATY
TAF
KATY 272325Z 2800/2824 28011KT P6SM SCT200
     FM280400 29015KT P6SM OVC050
     FM281200 29015KT P6SM OVC025
     FM281600 31019G26KT P6SM OVC050=

USA.gov is the U.S. government's official web portal to all federal, state and local government web resources and services.